Time;durP1;ratioP1;P1;durP2;ratioP2;P2;SDS_P1;SDS_P2;PMS_P1;PMS_P2;Temp;Humidity;BMP_temperature;BMP_pressure;BME280_temperature;BME280_humidity;BME280_pressure;Samples;Min_cycle;Max_cycle;Signal;HPM_P1;HPM_P2
2021/06/13 00:01:17;;;;;;;12.57;5.90;;;17.00;99.90;;;;;;5051112;28;20564;-61
2021/06/13 00:03:42;;;;;;;14.90;6.93;;;17.00;99.90;;;;;;5050923;28;20588;-61
2021/06/13 00:06:08;;;;;;;15.93;6.30;;;17.00;99.90;;;;;;5032494;28;20723;-61
2021/06/13 00:08:33;;;;;;;8.30;6.40;;;17.00;99.90;;;;;;5035847;28;20172;-60
2021/06/13 00:11:00;;;;;;;8.37;6.40;;;17.00;99.90;;;;;;5051209;28;20171;-61
2021/06/13 00:13:27;;;;;;;8.73;6.63;;;17.00;99.90;;;;;;5047734;28;20316;-61
2021/06/13 00:15:53;;;;;;;7.60;5.80;;;17.00;99.90;;;;;;5049672;28;20464;-61
2021/06/13 00:18:20;;;;;;;11.07;5.93;;;16.90;99.90;;;;;;5046286;28;20418;-61
2021/06/13 00:20:46;;;;;;;8.93;6.20;;;16.90;99.90;;;;;;5050997;28;20190;-58
2021/06/13 00:23:12;;;;;;;8.70;5.90;;;16.90;99.90;;;;;;5031570;28;20434;-59
2021/06/13 00:25:38;;;;;;;7.93;6.03;;;16.90;99.90;;;;;;5040097;28;20978;-60
2021/06/13 00:28:04;;;;;;;8.17;6.37;;;17.00;99.90;;;;;;5050359;28;20179;-60
2021/06/13 00:30:30;;;;;;;6.97;6.10;;;17.00;99.90;;;;;;5050936;28;20189;-59
2021/06/13 00:32:55;;;;;;;7.60;6.27;;;16.90;99.90;;;;;;5037704;28;20211;-59
2021/06/13 00:35:22;;;;;;;6.80;6.07;;;16.90;99.90;;;;;;5031096;28;20422;-60
2021/06/13 00:37:50;;;;;;;6.43;5.83;;;16.90;99.90;;;;;;5019777;28;20184;-59
2021/06/13 00:40:18;;;;;;;7.20;5.97;;;16.90;99.90;;;;;;5048557;28;20456;-59
2021/06/13 00:42:44;;;;;;;8.43;6.17;;;16.80;99.90;;;;;;5031755;28;20523;-59
2021/06/13 00:45:11;;;;;;;6.87;6.27;;;16.80;99.90;;;;;;5051255;28;20479;-59
2021/06/13 00:47:38;;;;;;;7.60;5.90;;;16.80;99.90;;;;;;5044583;28;20441;-59
2021/06/13 00:50:10;;;;;;;6.40;5.60;;;16.80;99.90;;;;;;5030977;28;20949;-58
2021/06/13 00:52:35;;;;;;;6.83;6.07;;;16.80;99.90;;;;;;5039554;28;20481;-59
2021/06/13 00:55:03;;;;;;;8.10;6.60;;;16.70;99.90;;;;;;5050655;28;20445;-60
2021/06/13 00:57:28;;;;;;;8.20;6.40;;;16.70;99.90;;;;;;5045608;28;20171;-58
2021/06/13 00:59:54;;;;;;;9.03;6.10;;;16.60;99.90;;;;;;5022974;28;20957;-59
2021/06/13 01:02:20;;;;;;;6.70;6.00;;;16.60;99.90;;;;;;5032788;28;20171;-59
2021/06/13 01:04:45;;;;;;;8.13;6.27;;;16.60;99.90;;;;;;5050930;28;20338;-59
2021/06/13 01:07:44;;;;;;;6.60;5.93;;;16.50;99.90;;;;;;5043772;28;20247;-60
2021/06/13 01:10:45;;;;;;;6.87;6.17;;;16.50;99.90;;;;;;5032622;28;20168;-59
2021/06/13 01:13:11;;;;;;;6.70;5.93;;;16.40;99.90;;;;;;5042916;28;20497;-59
2021/06/13 01:15:44;;;;;;;7.67;6.87;;;16.40;99.90;;;;;;5031621;28;20543;-60
2021/06/13 01:18:25;;;;;;;9.77;6.13;;;16.30;99.90;;;;;;5043018;28;20172;-59
2021/06/13 01:21:06;;;;;;;7.77;6.57;;;16.30;99.90;;;;;;5038655;28;20438;-59
2021/06/13 01:24:09;;;;;;;8.07;6.60;;;16.20;99.90;;;;;;5030733;28;20426;-60
2021/06/13 01:26:37;;;;;;;7.77;6.77;;;16.20;99.90;;;;;;5030579;28;20444;-59
2021/06/13 01:29:08;;;;;;;7.90;6.70;;;16.10;99.90;;;;;;5023396;28;20432;-59
2021/06/13 01:32:03;;;;;;;7.67;6.80;;;16.00;99.90;;;;;;5034437;28;20528;-59
2021/06/13 01:34:43;;;;;;;9.53;6.87;;;15.90;99.90;;;;;;5031586;28;20423;-59
2021/06/13 01:37:13;;;;;;;8.43;6.93;;;15.80;99.90;;;;;;5022489;28;20858;-59
2021/06/13 01:39:40;;;;;;;8.83;6.67;;;15.70;99.90;;;;;;5047595;28;20453;-59
2021/06/13 01:42:08;;;;;;;14.27;9.60;;;15.70;99.90;;;;;;5046700;28;20452;-59
2021/06/13 01:44:38;;;;;;;7.63;6.77;;;15.60;99.90;;;;;;5044423;28;20442;-59
2021/06/13 01:47:05;;;;;;;11.87;7.17;;;15.60;99.90;;;;;;5039619;28;20425;-59
2021/06/13 01:49:32;;;;;;;8.17;7.00;;;15.60;99.90;;;;;;5048788;28;20400;-58
2021/06/13 01:51:58;;;;;;;11.60;7.50;;;15.50;99.90;;;;;;5045827;28;20802;-57
2021/06/13 01:54:26;;;;;;;10.20;7.17;;;15.50;99.90;;;;;;5045778;28;20442;-59
2021/06/13 01:56:53;;;;;;;7.50;6.67;;;15.50;99.90;;;;;;5031811;28;20582;-59
2021/06/13 01:59:20;;;;;;;9.60;7.37;;;15.40;99.90;;;;;;5050075;28;20417;-59
2021/06/13 02:01:47;;;;;;;11.73;8.13;;;15.40;99.90;;;;;;5031934;28;20410;-59
2021/06/13 02:04:15;;;;;;;10.23;7.60;;;15.30;99.90;;;;;;5046743;28;20623;-59
2021/06/13 02:06:49;;;;;;;9.50;7.30;;;15.30;99.90;;;;;;5049593;28;20500;-59
2021/06/13 02:09:17;;;;;;;7.30;6.60;;;15.30;99.90;;;;;;5036499;28;20421;-59
2021/06/13 02:11:45;;;;;;;9.20;6.77;;;15.30;99.90;;;;;;5048428;28;20409;-59
2021/06/13 02:14:12;;;;;;;9.37;6.77;;;15.20;99.90;;;;;;5029838;28;20450;-59
2021/06/13 02:16:40;;;;;;;10.30;7.23;;;15.20;99.90;;;;;;5038595;28;20466;-59
2021/06/13 02:19:07;;;;;;;10.87;7.60;;;15.20;99.90;;;;;;5013689;28;20445;-59
2021/06/13 02:21:33;;;;;;;11.30;6.73;;;15.20;99.90;;;;;;5029760;28;20391;-59
2021/06/13 02:23:58;;;;;;;10.67;7.00;;;15.10;99.90;;;;;;5047787;28;20417;-59
2021/06/13 02:26:25;;;;;;;9.00;7.37;;;15.10;99.90;;;;;;5048794;28;20451;-60
2021/06/13 02:28:54;;;;;;;9.80;7.90;;;15.10;99.90;;;;;;5041353;28;20273;-59
2021/06/13 02:31:26;;;;;;;10.80;7.30;;;15.10;99.90;;;;;;5044296;28;20692;-59
2021/06/13 02:33:52;;;;;;;8.60;6.90;;;15.00;99.90;;;;;;5033447;28;20500;-59
2021/06/13 02:36:22;;;;;;;16.20;7.23;;;15.00;99.90;;;;;;5011567;28;20890;-59
2021/06/13 02:38:48;;;;;;;10.83;7.43;;;15.00;99.90;;;;;;5046466;28;20512;-60
2021/06/13 02:41:13;;;;;;;9.40;7.10;;;15.00;99.90;;;;;;5049729;28;20493;-60
2021/06/13 02:43:39;;;;;;;8.77;6.77;;;14.90;99.90;;;;;;5048292;28;20179;-60
2021/06/13 02:46:04;;;;;;;10.77;7.50;;;14.90;99.90;;;;;;5046048;28;20234;-59
2021/06/13 02:48:30;;;;;;;9.13;7.03;;;14.90;99.90;;;;;;5039903;28;20178;-62
2021/06/13 02:50:57;;;;;;;9.90;6.83;;;14.80;99.90;;;;;;5049477;28;20245;-59
2021/06/13 02:53:43;;;;;;;10.37;7.90;;;14.80;99.90;;;;;;5049536;28;20199;-60
2021/06/13 02:56:30;;;;;;;10.77;7.43;;;14.70;99.90;;;;;;5032739;28;20474;-59
2021/06/13 02:59:17;;;;;;;10.03;8.20;;;14.60;99.90;;;;;;5045824;28;20431;-60
2021/06/13 03:01:46;;;;;;;8.77;7.20;;;14.60;99.90;;;;;;5048838;28;20580;-59
2021/06/13 03:04:15;;;;;;;10.30;8.17;;;14.50;99.90;;;;;;5033440;28;20442;-59
2021/06/13 03:06:44;;;;;;;9.80;7.10;;;14.50;99.90;;;;;;5029860;28;20464;-59
2021/06/13 03:09:09;;;;;;;10.30;7.77;;;14.50;99.90;;;;;;5029258;28;20483;-60
2021/06/13 03:11:36;;;;;;;10.17;7.40;;;14.50;99.90;;;;;;5040209;28;20434;-59
2021/06/13 03:14:03;;;;;;;15.00;7.80;;;14.50;99.90;;;;;;5045910;28;20226;-59
2021/06/13 03:16:30;;;;;;;11.07;7.60;;;14.40;99.90;;;;;;5033333;28;20479;-59
2021/06/13 03:18:56;;;;;;;9.30;7.30;;;14.40;99.90;;;;;;5036391;28;20437;-60
2021/06/13 03:21:23;;;;;;;8.43;7.23;;;14.40;99.90;;;;;;5032399;28;20422;-58
2021/06/13 03:23:49;;;;;;;8.50;7.40;;;14.40;99.90;;;;;;5042332;28;20596;-60
2021/06/13 03:26:15;;;;;;;10.00;8.40;;;14.40;99.90;;;;;;5018131;28;20553;-60
2021/06/13 03:28:42;;;;;;;10.40;8.30;;;14.40;99.90;;;;;;5055098;22;20842;-55
2021/06/13 03:31:09;;;;;;;8.10;7.30;;;14.40;99.90;;;;;;5026542;28;20425;-55
2021/06/13 03:33:37;;;;;;;13.60;7.90;;;14.40;99.90;;;;;;5045413;28;20449;-54
2021/06/13 03:36:03;;;;;;;11.73;7.77;;;14.40;99.90;;;;;;5046076;28;20405;-52
2021/06/13 03:38:29;;;;;;;9.97;7.47;;;14.40;99.90;;;;;;5029466;28;20452;-54
2021/06/13 03:40:58;;;;;;;13.00;8.13;;;14.40;99.90;;;;;;5036698;28;20418;-55
2021/06/13 03:43:24;;;;;;;8.73;7.80;;;14.40;99.90;;;;;;5021504;28;20425;-55
2021/06/13 03:45:50;;;;;;;13.00;8.50;;;14.40;99.90;;;;;;5036621;28;20967;-55
2021/06/13 03:48:17;;;;;;;9.63;7.87;;;14.50;99.90;;;;;;5044978;28;20861;-55
2021/06/13 03:50:45;;;;;;;11.77;7.67;;;14.50;99.90;;;;;;5039130;28;20419;-55
2021/06/13 03:53:12;;;;;;;9.17;7.60;;;14.50;99.90;;;;;;5036969;28;20828;-55
2021/06/13 03:55:37;;;;;;;9.23;7.17;;;14.50;99.90;;;;;;5049373;28;20891;-55
2021/06/13 03:58:03;;;;;;;10.80;7.20;;;14.50;99.90;;;;;;5032258;28;20446;-55
2021/06/13 04:00:32;;;;;;;10.10;7.53;;;14.50;99.90;;;;;;5030236;28;20272;-56
2021/06/13 04:02:59;;;;;;;7.77;6.97;;;14.40;99.90;;;;;;5048252;28;20426;-56
2021/06/13 04:05:26;;;;;;;14.33;7.57;;;14.50;99.90;;;;;;5049401;28;20867;-55
2021/06/13 04:07:52;;;;;;;9.47;7.70;;;14.40;99.90;;;;;;5031261;28;20878;-56
2021/06/13 04:10:19;;;;;;;12.00;8.00;;;14.40;99.90;;;;;;5016938;28;21043;-54
2021/06/13 04:12:49;;;;;;;10.83;8.23;;;14.40;99.90;;;;;;5032267;28;20547;-56
2021/06/13 04:15:16;;;;;;;12.60;7.97;;;14.40;99.90;;;;;;5044662;28;20430;-56
2021/06/13 04:17:43;;;;;;;9.90;7.60;;;14.40;99.90;;;;;;5031467;28;20612;-55
2021/06/13 04:20:11;;;;;;;10.47;7.83;;;14.40;99.90;;;;;;5049092;28;20406;-55
2021/06/13 04:22:41;;;;;;;10.90;8.93;;;14.50;99.90;;;;;;5048687;28;20409;-55
2021/06/13 04:25:09;;;;;;;13.80;8.40;;;14.50;99.90;;;;;;5048167;28;20460;-56
2021/06/13 04:27:36;;;;;;;9.50;8.00;;;14.50;99.90;;;;;;5046216;28;20898;-56
2021/06/13 04:30:04;;;;;;;13.73;8.50;;;14.60;99.90;;;;;;5040915;28;20905;-55
2021/06/13 04:32:29;;;;;;;14.60;8.93;;;14.60;99.90;;;;;;5044854;28;20462;-54
2021/06/13 04:34:55;;;;;;;9.40;7.97;;;14.70;99.90;;;;;;5047095;28;20512;-54
2021/06/13 04:37:21;;;;;;;10.50;7.37;;;14.70;99.90;;;;;;5049024;28;20171;-54
2021/06/13 04:39:46;;;;;;;10.10;7.53;;;14.70;99.90;;;;;;5048732;28;20206;-55
2021/06/13 04:42:12;;;;;;;9.20;7.70;;;14.70;99.90;;;;;;5034536;28;20559;-55
2021/06/13 04:44:38;;;;;;;10.77;7.90;;;14.60;99.90;;;;;;5031634;28;20276;-55
2021/06/13 04:47:05;;;;;;;8.77;7.03;;;14.60;99.90;;;;;;5034113;28;20471;-55
2021/06/13 04:49:31;;;;;;;17.43;8.47;;;14.60;99.90;;;;;;5028012;28;20508;-57
2021/06/13 04:51:59;;;;;;;9.93;8.27;;;14.60;99.90;;;;;;5028595;28;20411;-55
2021/06/13 04:54:24;;;;;;;10.90;8.70;;;14.60;99.90;;;;;;5041698;28;20461;-55
2021/06/13 04:57:02;;;;;;;9.57;7.40;;;14.60;99.90;;;;;;5030452;28;20433;-56
2021/06/13 04:59:28;;;;;;;12.90;7.67;;;14.60;99.90;;;;;;5044507;28;20567;-56
2021/06/13 05:01:54;;;;;;;15.83;8.20;;;14.60;99.90;;;;;;5041193;28;20938;-55
2021/06/13 05:04:19;;;;;;;11.30;8.40;;;14.70;99.90;;;;;;5040194;28;20468;-56
2021/06/13 05:06:45;;;;;;;9.80;7.90;;;14.70;99.90;;;;;;5047029;28;20278;-56
2021/06/13 05:09:12;;;;;;;9.80;7.60;;;14.80;99.90;;;;;;5028375;28;20334;-56
2021/06/13 05:11:38;;;;;;;10.97;8.60;;;14.90;99.90;;;;;;5035417;28;20178;-55
2021/06/13 05:14:04;;;;;;;14.03;8.60;;;15.00;99.90;;;;;;5033443;28;20787;-56
2021/06/13 05:16:30;;;;;;;10.77;8.07;;;15.10;99.90;;;;;;5039890;28;20452;-54
2021/06/13 05:18:56;;;;;;;8.80;7.90;;;15.20;99.90;;;;;;5047577;28;20962;-56
2021/06/13 05:21:21;;;;;;;17.33;8.10;;;15.40;99.90;;;;;;5047854;28;20213;-54
2021/06/13 05:23:47;;;;;;;11.80;8.07;;;15.50;99.90;;;;;;5045718;28;20298;-55
2021/06/13 05:26:13;;;;;;;12.00;8.23;;;15.70;99.90;;;;;;5041544;28;20183;-56
2021/06/13 05:28:39;;;;;;;12.63;8.43;;;15.70;99.90;;;;;;5047794;28;20434;-55
2021/06/13 05:31:05;;;;;;;10.27;8.60;;;15.80;99.90;;;;;;5047826;28;20179;-56
2021/06/13 05:33:31;;;;;;;13.00;8.67;;;15.90;99.90;;;;;;5030962;28;20468;-57
2021/06/13 05:36:01;;;;;;;13.50;8.50;;;15.90;99.90;;;;;;5026758;28;20414;-56
2021/06/13 05:38:28;;;;;;;12.50;9.07;;;16.00;99.90;;;;;;5044242;28;20429;-56
2021/06/13 05:40:54;;;;;;;14.43;8.97;;;16.00;99.90;;;;;;5047107;28;20457;-56
2021/06/13 05:43:19;;;;;;;11.53;8.40;;;16.10;99.90;;;;;;5028179;28;20946;-56
2021/06/13 05:45:45;;;;;;;14.63;9.67;;;16.20;99.90;;;;;;5033963;28;20513;-57
2021/06/13 05:48:12;;;;;;;11.80;8.10;;;16.20;99.90;;;;;;5048098;28;20186;-55
2021/06/13 05:50:37;;;;;;;11.40;8.57;;;16.20;99.90;;;;;;5030662;28;20530;-56
2021/06/13 05:53:05;;;;;;;16.87;9.40;;;16.20;99.90;;;;;;5028114;28;20549;-56
2021/06/13 05:55:31;;;;;;;11.93;8.93;;;16.30;99.90;;;;;;5034974;28;20856;-56
2021/06/13 05:57:57;;;;;;;12.60;9.00;;;16.30;99.90;;;;;;5029014;28;20548;-56
2021/06/13 06:00:26;;;;;;;10.40;8.80;;;16.50;99.90;;;;;;5046011;28;20940;-53
2021/06/13 06:02:51;;;;;;;12.07;8.73;;;16.60;99.90;;;;;;5047645;28;20642;-54
2021/06/13 06:05:19;;;;;;;15.80;9.23;;;16.70;99.90;;;;;;5047542;28;20409;-54
2021/06/13 06:07:45;;;;;;;11.93;9.30;;;16.80;99.90;;;;;;5036085;28;20235;-55
2021/06/13 06:10:12;;;;;;;15.33;9.50;;;16.90;99.90;;;;;;5027217;28;20434;-55
2021/06/13 06:12:40;;;;;;;11.13;7.77;;;17.00;99.90;;;;;;5027510;28;20454;-55
2021/06/13 06:15:07;;;;;;;14.33;8.53;;;17.00;99.90;;;;;;5027488;28;20419;-54
2021/06/13 06:17:33;;;;;;;12.63;9.00;;;17.10;99.90;;;;;;5039152;28;20544;-56
2021/06/13 06:19:59;;;;;;;10.37;8.30;;;17.20;99.90;;;;;;5039074;28;20433;-53
2021/06/13 06:22:25;;;;;;;11.67;8.50;;;17.20;99.80;;;;;;5036343;28;20917;-53
2021/06/13 06:24:51;;;;;;;12.17;9.10;;;17.20;99.70;;;;;;5034021;28;20288;-55
2021/06/13 06:27:17;;;;;;;11.27;8.30;;;17.30;99.50;;;;;;5027520;28;20569;-55
2021/06/13 06:29:42;;;;;;;11.20;8.13;;;17.40;98.20;;;;;;5037164;28;20468;-55
2021/06/13 06:32:08;;;;;;;19.53;10.50;;;17.50;96.80;;;;;;5035618;28;20206;-54
2021/06/13 06:34:34;;;;;;;12.43;8.43;;;17.70;96.40;;;;;;5044205;28;20198;-56
2021/06/13 06:37:00;;;;;;;11.00;8.43;;;17.70;93.90;;;;;;5038489;28;20469;-54
2021/06/13 06:39:25;;;;;;;13.30;8.33;;;17.80;95.20;;;;;;5040391;28;20256;-54
2021/06/13 06:41:51;;;;;;;13.13;7.50;;;17.90;95.30;;;;;;5043370;28;20176;-54
2021/06/13 06:44:17;;;;;;;12.20;7.37;;;18.10;94.10;;;;;;5040086;28;20186;-54
2021/06/13 06:46:43;;;;;;;12.60;8.10;;;18.20;93.40;;;;;;5032930;28;20241;-54
2021/06/13 06:49:09;;;;;;;16.40;8.00;;;18.30;93.40;;;;;;5039153;28;20199;-53
2021/06/13 06:51:35;;;;;;;9.40;7.43;;;18.40;91.20;;;;;;5025729;28;20743;-54
2021/06/13 06:54:01;;;;;;;16.03;9.20;;;18.30;86.70;;;;;;5039782;28;20466;-54
2021/06/13 06:56:27;;;;;;;11.60;8.10;;;18.20;87.30;;;;;;5033995;28;20184;-53
2021/06/13 06:58:54;;;;;;;12.30;8.30;;;18.10;90.10;;;;;;5033231;28;20219;-54
2021/06/13 07:01:20;;;;;;;10.23;7.50;;;18.10;90.60;;;;;;5033277;28;20466;-53
2021/06/13 07:03:46;;;;;;;15.83;7.47;;;18.20;91.40;;;;;;5039100;28;20449;-55
2021/06/13 07:06:12;;;;;;;14.53;7.70;;;18.40;92.30;;;;;;5037321;28;20482;-53
2021/06/13 07:08:38;;;;;;;11.17;8.27;;;18.50;91.60;;;;;;5040544;28;20230;-53
2021/06/13 07:11:04;;;;;;;13.27;8.33;;;18.60;89.30;;;;;;5030630;28;20190;-53
2021/06/13 07:13:29;;;;;;;16.57;7.67;;;18.70;88.00;;;;;;5040414;28;20531;-53
2021/06/13 07:15:55;;;;;;;10.10;7.37;;;18.70;86.40;;;;;;5019051;28;20691;-53
2021/06/13 07:18:21;;;;;;;12.60;8.30;;;18.80;86.80;;;;;;5040104;28;20663;-55
2021/06/13 07:20:46;;;;;;;17.67;6.80;;;19.00;87.80;;;;;;5043491;28;20524;-55
2021/06/13 07:23:15;;;;;;;9.63;6.90;;;19.10;87.50;;;;;;5047048;28;20577;-54
2021/06/13 07:25:41;;;;;;;8.57;6.90;;;19.20;87.30;;;;;;5039953;28;20202;-53
2021/06/13 07:28:07;;;;;;;9.70;7.47;;;19.30;85.70;;;;;;5019899;28;20648;-54
2021/06/13 07:30:33;;;;;;;10.00;7.00;;;19.50;82.50;;;;;;5012148;28;20176;-55
2021/06/13 07:33:01;;;;;;;11.80;7.10;;;19.60;81.50;;;;;;5024204;28;20445;-56
2021/06/13 07:35:27;;;;;;;10.53;7.57;;;19.80;83.40;;;;;;5048954;28;20465;-55
2021/06/13 07:37:53;;;;;;;10.20;6.90;;;20.00;80.30;;;;;;5039742;28;20483;-55
2021/06/13 07:40:19;;;;;;;9.07;6.70;;;20.10;78.50;;;;;;5035625;28;20180;-55
2021/06/13 07:42:45;;;;;;;9.63;7.10;;;20.20;76.40;;;;;;5029774;28;20210;-55
2021/06/13 07:45:12;;;;;;;12.00;7.70;;;20.40;78.10;;;;;;5030055;28;20440;-54
2021/06/13 07:47:38;;;;;;;13.90;7.13;;;20.50;69.60;;;;;;5036978;28;20453;-55
2021/06/13 07:50:06;;;;;;;9.03;6.63;;;20.50;68.10;;;;;;5048671;28;20426;-54
2021/06/13 07:52:32;;;;;;;7.50;6.23;;;20.50;74.20;;;;;;5032300;28;20453;-56
2021/06/13 07:54:58;;;;;;;10.83;6.90;;;20.70;75.10;;;;;;5036538;28;20430;-54
2021/06/13 07:57:24;;;;;;;8.07;6.50;;;20.80;73.70;;;;;;5029855;28;20570;-56
2021/06/13 07:59:50;;;;;;;9.47;6.30;;;21.00;73.00;;;;;;5045035;28;20397;-55
2021/06/13 08:02:16;;;;;;;12.97;6.50;;;21.10;72.50;;;;;;5037102;28;20450;-56
2021/06/13 08:04:53;;;;;;;9.77;6.13;;;21.20;70.80;;;;;;5027273;28;20183;-56
2021/06/13 08:07:19;;;;;;;8.00;6.07;;;21.30;68.50;;;;;;5049365;28;20201;-56
2021/06/13 08:09:45;;;;;;;8.03;6.20;;;21.50;67.40;;;;;;5048626;28;20453;-55
2021/06/13 08:12:11;;;;;;;6.50;5.63;;;21.60;66.30;;;;;;5046938;28;20171;-54
2021/06/13 08:14:37;;;;;;;6.80;5.47;;;21.70;65.60;;;;;;5036386;28;20310;-54
2021/06/13 08:17:03;;;;;;;8.23;5.50;;;21.80;63.80;;;;;;5036931;28;20559;-54
2021/06/13 08:19:29;;;;;;;7.93;5.47;;;21.90;63.60;;;;;;5017410;28;20453;-57
2021/06/13 08:21:55;;;;;;;5.67;5.10;;;22.00;60.70;;;;;;5031911;28;20922;-56
2021/06/13 08:24:23;;;;;;;7.60;5.07;;;22.00;58.20;;;;;;5029939;28;20188;-56
2021/06/13 08:26:49;;;;;;;7.60;5.60;;;22.00;58.50;;;;;;5019622;28;20183;-57
2021/06/13 08:29:15;;;;;;;9.80;4.83;;;21.90;57.10;;;;;;5037165;28;20781;-56
2021/06/13 08:31:40;;;;;;;7.10;5.07;;;21.90;55.50;;;;;;5036443;28;20498;-55
2021/06/13 08:34:06;;;;;;;6.47;5.53;;;21.70;56.00;;;;;;5032186;28;20295;-56
2021/06/13 08:36:32;;;;;;;7.63;5.60;;;21.60;58.40;;;;;;5030450;28;20179;-55
2021/06/13 08:38:59;;;;;;;9.83;5.13;;;21.60;60.10;;;;;;5012511;28;20208;-55
2021/06/13 08:41:25;;;;;;;7.63;5.00;;;21.60;59.50;;;;;;5033263;28;20442;-57
2021/06/13 08:43:52;;;;;;;8.20;5.33;;;21.50;58.00;;;;;;5038881;28;20499;-56
2021/06/13 08:46:19;;;;;;;6.90;5.00;;;21.40;57.90;;;;;;5013700;28;20542;-55
2021/06/13 08:48:46;;;;;;;6.57;4.90;;;21.50;58.50;;;;;;5034188;28;20993;-56
2021/06/13 08:51:13;;;;;;;10.30;6.03;;;21.70;57.30;;;;;;5033547;28;20434;-54
2021/06/13 08:53:44;;;;;;;7.10;5.47;;;22.00;57.70;;;;;;5040207;28;20472;-55
2021/06/13 08:56:11;;;;;;;6.30;5.50;;;22.10;56.90;;;;;;5029976;28;20438;-55
2021/06/13 08:58:36;;;;;;;6.50;5.43;;;22.20;55.70;;;;;;5032466;28;20512;-56
2021/06/13 09:01:04;;;;;;;11.57;5.93;;;22.30;56.10;;;;;;5035959;28;20817;-54
2021/06/13 09:03:29;;;;;;;6.80;5.50;;;22.40;56.50;;;;;;5037341;28;20194;-56
2021/06/13 09:05:55;;;;;;;7.33;5.20;;;22.50;57.40;;;;;;5034169;28;20441;-56
2021/06/13 09:08:20;;;;;;;8.27;5.50;;;22.50;54.30;;;;;;5010136;28;20555;-56
2021/06/13 09:10:49;;;;;;;7.53;5.53;;;22.40;54.70;;;;;;5026267;28;20194;-54
2021/06/13 09:13:24;;;;;;;6.50;5.37;;;22.50;55.30;;;;;;5027452;28;20250;-55
2021/06/13 09:15:53;;;;;;;6.47;5.37;;;22.50;55.80;;;;;;5029253;28;20464;-55
2021/06/13 09:18:45;;;;;;;6.90;5.63;;;22.50;52.70;;;;;;5037631;28;20457;-55
2021/06/13 09:21:33;;;;;;;7.07;5.20;;;22.50;52.50;;;;;;5030724;28;20529;-54
2021/06/13 09:23:59;;;;;;;5.87;4.77;;;22.50;52.40;;;;;;5031552;28;20430;-55
2021/06/13 09:26:30;;;;;;;8.37;5.23;;;22.40;51.80;;;;;;5036574;28;20458;-56
2021/06/13 09:28:58;;;;;;;6.87;5.03;;;22.40;54.10;;;;;;5051467;23;20532;-60
2021/06/13 09:31:26;;;;;;;7.97;4.63;;;22.50;53.70;;;;;;5014761;28;21093;-59
2021/06/13 09:33:54;;;;;;;7.33;4.70;;;22.50;49.20;;;;;;5025197;28;20824;-58
2021/06/13 09:36:25;;;;;;;7.77;4.87;;;22.60;50.70;;;;;;5036403;28;20449;-59
2021/06/13 09:39:01;;;;;;;6.23;4.40;;;22.50;49.30;;;;;;5037473;28;20457;-60
2021/06/13 09:41:28;;;;;;;5.73;4.43;;;22.50;49.30;;;;;;5030545;28;20819;-57
2021/06/13 09:43:56;;;;;;;7.80;4.70;;;22.50;50.60;;;;;;5031516;28;20789;-59
2021/06/13 09:46:27;;;;;;;6.23;5.13;;;22.60;52.10;;;;;;5033369;28;20524;-58
2021/06/13 09:49:05;;;;;;;7.13;4.80;;;22.70;53.10;;;;;;5031840;28;21083;-57
2021/06/13 09:51:34;;;;;;;5.50;5.00;;;22.90;53.70;;;;;;5034654;28;20457;-58
2021/06/13 09:54:05;;;;;;;4.93;4.30;;;23.10;53.60;;;;;;5018115;28;20473;-61
2021/06/13 09:56:31;;;;;;;6.07;4.40;;;23.30;54.00;;;;;;5033943;28;20429;-60
2021/06/13 09:59:06;;;;;;;6.57;4.70;;;23.50;52.90;;;;;;5028789;28;20533;-59
2021/06/13 10:01:36;;;;;;;5.80;4.60;;;23.60;52.80;;;;;;5029963;28;20913;-57
2021/06/13 10:04:02;;;;;;;4.93;4.43;;;23.70;51.60;;;;;;5031170;28;20442;-59
2021/06/13 10:06:30;;;;;;;5.60;4.70;;;23.60;47.80;;;;;;5028176;28;20442;-60
2021/06/13 10:08:57;;;;;;;9.60;5.20;;;23.40;50.00;;;;;;5024324;28;20203;-59
2021/06/13 10:11:23;;;;;;;7.03;4.80;;;23.50;51.00;;;;;;5016104;28;20560;-59
2021/06/13 10:13:55;;;;;;;5.20;4.70;;;23.50;49.80;;;;;;5026497;28;20471;-59
2021/06/13 10:16:22;;;;;;;15.20;4.67;;;23.40;48.80;;;;;;5029088;28;20184;-62
2021/06/13 10:18:58;;;;;;;7.30;4.80;;;23.40;50.00;;;;;;5031839;28;20449;-61
2021/06/13 10:21:36;;;;;;;5.87;4.70;;;23.50;50.50;;;;;;5029088;28;20495;-61
2021/06/13 10:24:05;;;;;;;4.90;4.40;;;23.60;49.30;;;;;;5029874;28;20483;-60
2021/06/13 10:26:31;;;;;;;4.53;4.10;;;23.70;48.30;;;;;;5031478;28;20437;-59
2021/06/13 10:28:57;;;;;;;5.50;4.97;;;23.80;48.50;;;;;;5027170;28;20531;-56
2021/06/13 10:31:23;;;;;;;6.80;5.40;;;24.00;49.60;;;;;;5027914;28;20854;-60
2021/06/13 10:33:49;;;;;;;5.33;4.40;;;24.20;50.20;;;;;;5008762;28;20218;-61
2021/06/13 10:36:15;;;;;;;6.17;4.67;;;24.30;47.60;;;;;;5035613;28;20459;-60
2021/06/13 10:38:42;;;;;;;5.33;4.37;;;24.30;46.80;;;;;;5030546;28;20199;-60
2021/06/13 10:41:09;;;;;;;7.73;4.50;;;24.30;48.30;;;;;;5025134;28;20458;-58
2021/06/13 10:43:35;;;;;;;5.57;4.30;;;24.50;47.30;;;;;;5026923;28;20799;-57
2021/06/13 10:46:24;;;;;;;5.30;4.43;;;24.60;48.30;;;;;;5023912;28;20433;-60
2021/06/13 10:48:51;;;;;;;6.67;4.23;;;24.70;46.60;;;;;;5029106;28;20456;-58
2021/06/13 10:51:41;;;;;;;4.10;3.70;;;24.70;46.10;;;;;;5031362;28;20484;-60
2021/06/13 10:54:22;;;;;;;4.47;3.83;;;24.60;43.50;;;;;;5030759;28;21068;-59
2021/06/13 10:56:49;;;;;;;4.70;4.10;;;24.50;44.80;;;;;;5037565;28;20930;-57
2021/06/13 10:59:18;;;;;;;7.43;3.97;;;24.40;43.90;;;;;;5030507;28;20453;-59
2021/06/13 11:01:58;;;;;;;21.53;4.60;;;24.40;46.00;;;;;;5029377;28;20521;-58
2021/06/13 11:04:47;;;;;;;10.03;4.20;;;24.50;46.30;;;;;;5029721;28;20525;-60
2021/06/13 11:07:46;;;;;;;9.43;3.60;;;24.60;44.90;;;;;;5033762;28;20775;-59
2021/06/13 11:10:14;;;;;;;4.63;4.07;;;24.70;44.80;;;;;;5034377;28;20485;-57
2021/06/13 11:12:52;;;;;;;9.87;3.90;;;24.80;43.00;;;;;;5038470;28;20455;-59
2021/06/13 11:15:35;;;;;;;5.90;3.97;;;24.80;43.30;;;;;;5039697;28;20433;-56
2021/06/13 11:18:16;;;;;;;4.00;3.60;;;24.90;45.30;;;;;;5031850;28;20417;-59
2021/06/13 11:20:52;;;;;;;4.33;3.60;;;25.10;44.90;;;;;;5029937;28;20425;-59
2021/06/13 11:23:23;;;;;;;4.45;3.50;;;25.20;44.70;;;;;;5036242;28;20803;-59
2021/06/13 11:25:51;;;;;;;6.70;3.50;;;25.20;43.30;;;;;;5031054;28;20207;-59
2021/06/13 11:28:24;;;;;;;4.43;3.00;;;25.20;44.80;;;;;;5033636;28;20562;-59
2021/06/13 11:30:56;;;;;;;5.23;3.40;;;25.30;44.10;;;;;;5033557;28;20441;-59
2021/06/13 11:33:40;;;;;;;5.53;3.87;;;25.40;43.80;;;;;;5033491;28;20456;-58
2021/06/13 11:36:26;;;;;;;3.53;3.23;;;25.50;44.00;;;;;;5041679;28;20437;-60
2021/06/13 11:39:04;;;;;;;4.17;3.10;;;25.70;44.70;;;;;;5005483;28;20460;-60
2021/06/13 11:41:35;;;;;;;4.43;3.40;;;25.80;44.80;;;;;;5034715;28;20479;-59
2021/06/13 11:44:07;;;;;;;4.33;3.10;;;25.90;43.10;;;;;;5023209;28;20566;-59
2021/06/13 11:46:39;;;;;;;8.47;3.43;;;26.00;44.60;;;;;;5003329;28;20550;-59
2021/06/13 11:49:16;;;;;;;5.73;3.37;;;26.20;45.10;;;;;;5029916;28;20449;-59
2021/06/13 11:51:48;;;;;;;7.20;3.67;;;26.20;41.20;;;;;;5020057;28;20467;-59
2021/06/13 11:54:55;;;;;;;4.03;3.50;;;26.20;42.10;;;;;;5034998;28;20472;-60
2021/06/13 11:57:20;;;;;;;3.07;2.87;;;26.20;41.80;;;;;;5030882;28;21176;-59
2021/06/13 11:59:47;;;;;;;3.43;2.73;;;26.30;41.40;;;;;;5033452;28;20453;-59
2021/06/13 12:02:17;;;;;;;3.20;2.90;;;26.40;41.30;;;;;;5031520;28;20177;-58
2021/06/13 12:04:45;;;;;;;6.20;5.60;;;26.50;40.90;;;;;;5035449;28;20986;-59
2021/06/13 12:07:12;;;;;;;4.70;3.20;;;26.60;41.80;;;;;;5040100;28;20560;-59
2021/06/13 12:09:38;;;;;;;4.17;2.90;;;26.80;40.70;;;;;;5036192;28;20453;-60
2021/06/13 12:12:07;;;;;;;4.03;2.90;;;27.00;40.30;;;;;;5034911;28;20437;-60
2021/06/13 12:14:48;;;;;;;55.90;37.07;;;27.20;40.70;;;;;;5029557;28;20767;-59
2021/06/13 12:17:23;;;;;;;16.50;14.57;;;27.40;41.90;;;;;;5038106;28;20472;-59
2021/06/13 12:19:51;;;;;;;22.60;4.50;;;27.60;40.90;;;;;;5014242;28;20956;-61
2021/06/13 12:27:27;;;;;;;3.20;2.90;;;27.90;37.20;;;;;;5027735;28;21327;-62
2021/06/13 12:29:57;;;;;;;3.90;3.03;;;27.90;39.20;;;;;;5025391;28;20474;-63
2021/06/13 12:32:23;;;;;;;4.53;2.70;;;27.90;38.30;;;;;;5033816;28;22513;-59
2021/06/13 12:34:53;;;;;;;5.67;2.90;;;27.90;36.50;;;;;;5027175;28;20982;-62
2021/06/13 12:37:24;;;;;;;4.00;2.77;;;27.70;35.30;;;;;;5032371;28;20421;-60
2021/06/13 12:39:59;;;;;;;2.30;2.10;;;27.40;36.00;;;;;;5039648;28;20448;-61
2021/06/13 12:42:26;;;;;;;3.87;2.47;;;27.20;35.30;;;;;;5018514;28;20440;-61
2021/06/13 12:45:06;;;;;;;3.03;2.20;;;27.30;39.40;;;;;;5037655;28;20805;-62
2021/06/13 12:47:33;;;;;;;2.57;2.37;;;27.50;38.50;;;;;;5028474;28;20428;-61
2021/06/13 12:50:00;;;;;;;3.00;2.70;;;27.60;36.60;;;;;;5033357;28;20452;-61
2021/06/13 12:52:27;;;;;;;2.30;2.10;;;27.60;35.80;;;;;;5033983;28;20437;-60
2021/06/13 12:54:56;;;;;;;4.67;2.50;;;27.60;37.00;;;;;;5036589;28;21027;-60
2021/06/13 12:57:22;;;;;;;5.57;2.07;;;27.70;36.80;;;;;;5033173;28;20434;-59